createdAt,value
2022-08-27T00:00:51.134Z,22.30
2022-08-27T00:03:20.134Z,22.30
2022-08-27T00:05:48.903Z,22.40
2022-08-27T00:08:18.829Z,22.50
2022-08-27T00:10:47.202Z,22.50
2022-08-27T00:13:16.333Z,22.50
2022-08-27T00:15:45.074Z,22.50
2022-08-27T00:18:14.297Z,22.50
2022-08-27T00:20:44.013Z,22.50
2022-08-27T00:23:12.630Z,22.50
2022-08-27T00:25:42.353Z,22.60
2022-08-27T00:28:11.205Z,22.60
2022-08-27T00:30:40.830Z,22.70
2022-08-27T00:33:09.251Z,22.70
2022-08-27T00:35:38.384Z,22.70
2022-08-27T00:38:07.498Z,22.70
2022-08-27T00:40:36.727Z,22.70
2022-08-27T00:43:06.720Z,22.80
2022-08-27T00:45:40.565Z,22.70
2022-08-27T00:48:12.094Z,22.80
2022-08-27T00:50:45.386Z,22.80
2022-08-27T00:53:19.551Z,22.80
2022-08-27T00:55:53.966Z,22.90
2022-08-27T00:58:28.579Z,22.90
2022-08-27T01:01:01.241Z,23.00
2022-08-27T01:05:27.372Z,23.00
2022-08-27T01:08:00.599Z,23.00
2022-08-27T01:10:30.959Z,22.90
2022-08-27T01:13:00.066Z,23.00
2022-08-27T01:15:30.310Z,23.00
2022-08-27T01:18:01.004Z,23.00
2022-08-27T01:20:36.865Z,22.90
2022-08-27T01:23:11.316Z,22.90
2022-08-27T01:25:42.894Z,22.90
2022-08-27T01:28:12.853Z,22.90
2022-08-27T01:30:42.487Z,22.80
2022-08-27T01:33:14.540Z,22.80
2022-08-27T01:35:43.326Z,22.80
2022-08-27T01:38:19.078Z,22.80
2022-08-27T01:41:01.925Z,22.80
2022-08-27T01:43:31.623Z,22.70
2022-08-27T01:46:00.799Z,22.70
2022-08-27T01:48:29.168Z,22.70
2022-08-27T01:50:57.670Z,22.70
2022-08-27T01:53:28.346Z,22.80
2022-08-27T01:55:57.952Z,22.70
2022-08-27T01:58:29.813Z,22.70
2022-08-27T02:01:02.916Z,22.70
2022-08-27T02:03:31.688Z,22.60
2022-08-27T02:06:00.984Z,22.60
2022-08-27T02:08:29.261Z,22.60
2022-08-27T02:10:57.806Z,22.50
2022-08-27T02:13:27.514Z,22.50
2022-08-27T02:15:56.857Z,22.50
2022-08-27T02:18:25.651Z,22.50
2022-08-27T02:20:54.060Z,22.50
2022-08-27T02:23:25.185Z,22.50
2022-08-27T02:25:54.096Z,22.50
2022-08-27T02:28:22.543Z,22.50
2022-08-27T02:30:52.467Z,22.40
2022-08-27T02:33:20.921Z,22.40
2022-08-27T02:35:49.155Z,22.30
2022-08-27T02:38:17.578Z,22.30
2022-08-27T02:40:45.872Z,22.10
2022-08-27T02:43:15.817Z,22.00
2022-08-27T02:45:44.464Z,21.90
2022-08-27T02:48:14.708Z,21.90
2022-08-27T02:50:43.717Z,21.80
2022-08-27T02:53:12.660Z,21.80
2022-08-27T02:55:41.327Z,21.70
2022-08-27T02:58:09.975Z,21.70
2022-08-27T03:00:41.641Z,21.70
2022-08-27T03:05:26.747Z,21.60
2022-08-27T03:07:55.261Z,21.60
2022-08-27T03:10:23.832Z,21.60
2022-08-27T03:12:52.894Z,21.60
2022-08-27T03:15:21.733Z,21.50
2022-08-27T03:18:07.965Z,21.50
2022-08-27T03:20:42.007Z,21.50
2022-08-27T03:23:11.033Z,21.50
2022-08-27T03:25:40.932Z,21.50
2022-08-27T03:28:22.561Z,21.60
2022-08-27T03:30:53.244Z,21.60
2022-08-27T03:33:26.528Z,21.60
2022-08-27T03:35:56.737Z,21.60
2022-08-27T03:38:25.323Z,21.70
2022-08-27T03:40:54.245Z,21.70
2022-08-27T03:43:23.763Z,21.70
2022-08-27T03:46:01.742Z,21.70
2022-08-27T03:48:34.302Z,21.70
2022-08-27T03:51:09.145Z,21.60
2022-08-27T03:53:39.584Z,21.60
2022-08-27T03:56:08.755Z,21.50
2022-08-27T03:58:39.060Z,21.50
2022-08-27T04:01:08.964Z,21.50
2022-08-27T04:03:37.612Z,21.50
2022-08-27T04:06:08.223Z,21.50
2022-08-27T04:08:36.749Z,21.50
2022-08-27T04:11:07.195Z,21.50
2022-08-27T04:13:36.293Z,21.50
2022-08-27T04:16:07.036Z,21.60
2022-08-27T04:18:38.157Z,21.60
2022-08-27T04:21:12.901Z,21.60
2022-08-27T04:23:42.930Z,21.60
2022-08-27T04:26:12.519Z,21.60
2022-08-27T04:28:40.843Z,21.60
2022-08-27T04:31:10.276Z,21.60
2022-08-27T04:33:51.346Z,21.50
2022-08-27T04:36:36.549Z,21.60
2022-08-27T04:39:05.026Z,21.60
2022-08-27T04:41:33.675Z,21.50
2022-08-27T04:44:06.075Z,21.50
2022-08-27T04:46:37.316Z,21.60
2022-08-27T04:49:10.674Z,21.50
2022-08-27T04:51:41.190Z,21.50
2022-08-27T04:54:11.473Z,21.50
2022-08-27T04:56:40.289Z,21.50
2022-08-27T04:59:10.948Z,21.50
2022-08-27T05:01:41.246Z,21.50
2022-08-27T05:05:42.716Z,21.50
2022-08-27T05:08:13.332Z,21.40
2022-08-27T05:10:43.530Z,21.50
2022-08-27T05:13:12.200Z,21.50
2022-08-27T05:15:41.272Z,21.50
2022-08-27T05:18:10.686Z,21.50
2022-08-27T05:20:47.139Z,21.50
2022-08-27T05:23:17.640Z,21.50
2022-08-27T05:25:48.022Z,21.50
2022-08-27T05:28:18.281Z,21.50
2022-08-27T05:30:55.301Z,21.50
2022-08-27T05:33:26.698Z,21.50
2022-08-27T05:35:58.360Z,21.50
2022-08-27T05:38:28.649Z,21.50
2022-08-27T05:41:11.665Z,21.60
2022-08-27T05:43:41.775Z,21.60
2022-08-27T05:46:12.986Z,21.60
2022-08-27T05:48:43.118Z,21.70
2022-08-27T05:51:16.156Z,21.90
2022-08-27T05:53:51.102Z,22.00
2022-08-27T05:56:21.417Z,22.10
2022-08-27T05:59:13.955Z,22.20
2022-08-27T06:01:45.027Z,22.20
2022-08-27T06:04:17.468Z,22.20
2022-08-27T06:06:49.258Z,22.30
2022-08-27T06:09:20.858Z,22.30
2022-08-27T06:11:49.724Z,22.40
2022-08-27T06:14:18.069Z,22.50
2022-08-27T06:16:46.437Z,22.60
2022-08-27T06:19:14.797Z,22.60
2022-08-27T06:21:43.859Z,22.70
2022-08-27T06:24:14.662Z,22.80
2022-08-27T06:26:48.923Z,22.80
2022-08-27T06:29:17.640Z,22.70
2022-08-27T06:31:46.073Z,22.70
2022-08-27T06:34:16.859Z,22.70
2022-08-27T06:36:45.632Z,22.60
2022-08-27T06:39:17.017Z,22.60
2022-08-27T06:41:46.519Z,22.70
2022-08-27T06:44:15.573Z,22.70
2022-08-27T06:46:44.814Z,22.60
2022-08-27T06:49:14.257Z,22.60
2022-08-27T06:51:47.009Z,22.70
2022-08-27T06:54:20.302Z,22.80
2022-08-27T06:56:49.621Z,22.80
2022-08-27T06:59:20.934Z,22.80
2022-08-27T07:05:27.833Z,22.80
2022-08-27T07:07:56.590Z,22.80
2022-08-27T07:10:26.090Z,22.70
2022-08-27T07:12:54.846Z,22.60
2022-08-27T07:15:24.326Z,22.70
2022-08-27T07:17:55.525Z,22.70
2022-08-27T07:20:24.330Z,22.60
2022-08-27T07:22:54.669Z,22.50
2022-08-27T07:25:23.546Z,22.40
2022-08-27T07:27:52.103Z,22.30
2022-08-27T07:30:20.580Z,22.30
2022-08-27T07:32:51.365Z,22.30
2022-08-27T07:35:19.775Z,22.30
2022-08-27T07:37:48.466Z,22.30
2022-08-27T07:40:18.477Z,22.30
2022-08-27T07:43:04.337Z,22.30
2022-08-27T07:45:32.715Z,22.30
2022-08-27T07:48:00.959Z,22.40
2022-08-27T07:50:29.440Z,22.50
2022-08-27T07:52:57.904Z,22.70
2022-08-27T07:55:32.253Z,22.80
2022-08-27T07:58:01.143Z,23.00
2022-08-27T08:00:30.058Z,23.10
2022-08-27T08:02:58.493Z,23.20
2022-08-27T08:05:27.494Z,23.30
2022-08-27T08:07:56.130Z,23.30
2022-08-27T08:10:25.585Z,23.20
2022-08-27T08:12:55.299Z,23.20
2022-08-27T08:15:23.786Z,23.10
2022-08-27T08:17:52.186Z,23.20
2022-08-27T08:20:31.151Z,23.20
2022-08-27T08:23:09.923Z,23.00
2022-08-27T08:25:39.006Z,23.00
2022-08-27T08:28:09.230Z,22.90
2022-08-27T08:30:38.754Z,22.90
2022-08-27T08:33:07.212Z,22.90
2022-08-27T08:35:40.921Z,22.90
2022-08-27T08:38:13.223Z,23.00
2022-08-27T08:40:44.150Z,23.10
2022-08-27T08:43:25.366Z,23.30
2022-08-27T08:45:55.497Z,23.60
2022-08-27T08:48:26.919Z,23.70
2022-08-27T08:50:59.041Z,23.60
2022-08-27T08:53:40.013Z,23.60
2022-08-27T08:56:12.801Z,23.60
2022-08-27T08:58:47.096Z,23.60
2022-08-27T09:01:20.880Z,23.60
2022-08-27T09:05:27.584Z,23.60
2022-08-27T09:08:31.884Z,23.50
2022-08-27T09:11:09.976Z,23.50
2022-08-27T09:13:44.079Z,23.70
2022-08-27T09:16:13.096Z,23.70
2022-08-27T09:18:45.496Z,23.70
2022-08-27T09:21:28.313Z,23.60
2022-08-27T09:24:07.184Z,23.40
2022-08-27T09:26:38.928Z,23.20
2022-08-27T09:29:20.529Z,23.00
2022-08-27T09:31:55.719Z,23.00
2022-08-27T09:34:25.004Z,23.00
2022-08-27T09:37:00.539Z,23.10
2022-08-27T09:39:34.294Z,23.00
2022-08-27T09:42:04.745Z,23.00
2022-08-27T09:44:33.864Z,23.10
2022-08-27T09:47:04.288Z,23.10
2022-08-27T09:49:34.761Z,23.20
2022-08-27T09:52:05.381Z,23.10
2022-08-27T09:54:42.482Z,23.30
2022-08-27T09:57:13.238Z,23.50
2022-08-27T09:59:52.700Z,23.70
2022-08-27T10:02:25.366Z,23.90
2022-08-27T10:04:58.967Z,24.10
2022-08-27T10:07:40.661Z,24.20
2022-08-27T10:10:16.034Z,24.20
2022-08-27T10:12:53.892Z,24.20
2022-08-27T10:15:24.996Z,24.00
2022-08-27T10:18:01.809Z,24.00
2022-08-27T10:20:40.485Z,24.00
2022-08-27T10:23:21.901Z,24.20
2022-08-27T10:26:00.582Z,24.30
2022-08-27T10:28:42.087Z,24.40
2022-08-27T10:31:26.255Z,24.30
2022-08-27T10:34:12.595Z,24.30
2022-08-27T10:36:55.268Z,24.30
2022-08-27T10:39:47.711Z,24.10
2022-08-27T10:42:23.092Z,24.00
2022-08-27T10:45:04.780Z,24.00
2022-08-27T10:47:48.169Z,23.60
2022-08-27T10:50:30.558Z,23.40
2022-08-27T10:53:06.167Z,23.30
2022-08-27T10:55:41.603Z,23.30
2022-08-27T10:58:27.249Z,23.40
2022-08-27T11:01:02.705Z,23.50
2022-08-27T11:05:28.255Z,23.70
2022-08-27T11:08:02.071Z,23.70
2022-08-27T11:10:34.162Z,23.70
2022-08-27T11:13:11.725Z,23.70
2022-08-27T11:15:44.044Z,23.60
2022-08-27T11:18:19.808Z,23.70
2022-08-27T11:20:58.460Z,23.60
2022-08-27T11:23:32.166Z,23.60
2022-08-27T11:26:04.193Z,23.50
2022-08-27T11:28:38.550Z,23.20
2022-08-27T11:31:17.926Z,22.90
2022-08-27T11:33:53.321Z,22.80
2022-08-27T11:37:03.978Z,22.60
2022-08-27T11:39:49.784Z,22.60
2022-08-27T11:42:28.590Z,22.40
2022-08-27T11:45:04.899Z,22.30
2022-08-27T11:47:34.181Z,22.10
2022-08-27T11:50:17.608Z,21.90
2022-08-27T11:52:59.404Z,21.70
2022-08-27T11:55:34.777Z,21.50
2022-08-27T11:58:11.655Z,21.50
2022-08-27T12:00:42.648Z,21.40
2022-08-27T12:03:25.013Z,21.40
2022-08-27T12:06:11.717Z,21.40
2022-08-27T12:08:41.517Z,21.50
2022-08-27T12:11:21.791Z,21.60
2022-08-27T12:13:57.241Z,21.60
2022-08-27T12:16:36.943Z,21.60
2022-08-27T12:19:21.991Z,21.40
2022-08-27T12:22:06.386Z,21.30
2022-08-27T12:24:44.181Z,21.30
2022-08-27T12:27:29.699Z,21.30
2022-08-27T12:30:01.246Z,21.30
2022-08-27T12:32:32.886Z,21.30
2022-08-27T12:35:10.819Z,21.30
2022-08-27T12:37:41.551Z,21.30
2022-08-27T12:40:29.016Z,21.20
2022-08-27T12:43:07.967Z,21.10
2022-08-27T12:45:46.205Z,21.10
2022-08-27T12:48:20.799Z,21.00
2022-08-27T12:50:55.079Z,21.10
2022-08-27T12:53:37.299Z,21.10
2022-08-27T12:56:28.318Z,21.10
2022-08-27T12:59:04.547Z,21.10
2022-08-27T13:05:26.629Z,21.20
2022-08-27T13:07:55.495Z,21.30
2022-08-27T13:10:29.537Z,21.30
2022-08-27T13:13:07.049Z,21.30
2022-08-27T13:15:36.023Z,21.40
2022-08-27T13:18:07.795Z,21.50
2022-08-27T13:20:41.421Z,21.70
2022-08-27T13:23:24.216Z,21.80
2022-08-27T13:26:00.512Z,21.70
2022-08-27T13:28:31.604Z,21.80
2022-08-27T13:31:01.577Z,21.80
2022-08-27T13:33:33.902Z,22.00
2022-08-27T13:36:11.563Z,22.10
2022-08-27T13:38:45.497Z,22.10
2022-08-27T13:41:26.441Z,22.40
2022-08-27T13:43:59.147Z,22.70
2022-08-27T13:46:31.750Z,22.70
2022-08-27T13:49:01.808Z,22.70
2022-08-27T13:51:33.793Z,22.80
2022-08-27T13:54:14.604Z,22.90
2022-08-27T13:57:03.623Z,23.10
2022-08-27T13:59:33.328Z,23.10
2022-08-27T14:02:05.214Z,23.10
2022-08-27T14:04:40.715Z,23.00
2022-08-27T14:07:14.639Z,23.20
2022-08-27T14:09:51.289Z,23.50
2022-08-27T14:12:32.893Z,23.60
2022-08-27T14:15:20.095Z,23.70
2022-08-27T14:17:48.931Z,23.80
2022-08-27T14:20:18.669Z,24.10
2022-08-27T14:22:48.448Z,24.40
2022-08-27T14:25:21.469Z,24.40
2022-08-27T14:27:54.279Z,24.30
2022-08-27T14:30:29.686Z,24.10
2022-08-27T14:33:00.590Z,23.90
2022-08-27T14:35:31.079Z,23.50
2022-08-27T14:38:09.425Z,23.40
2022-08-27T14:40:38.878Z,23.20
2022-08-27T14:43:07.887Z,23.10
2022-08-27T14:45:37.238Z,23.00
2022-08-27T14:48:08.462Z,23.00
2022-08-27T14:50:47.238Z,23.10
2022-08-27T14:53:20.026Z,23.30
2022-08-27T14:55:51.834Z,23.30
2022-08-27T14:58:20.956Z,23.30
2022-08-27T15:00:49.535Z,23.10
2022-08-27T15:05:26.720Z,22.60
2022-08-27T15:07:58.119Z,22.40
2022-08-27T15:10:26.959Z,22.30
2022-08-27T15:12:58.348Z,22.30
2022-08-27T15:15:26.904Z,22.10
2022-08-27T15:17:55.689Z,22.00
2022-08-27T15:20:25.408Z,21.90
2022-08-27T15:22:54.241Z,22.00
2022-08-27T15:25:23.286Z,22.00
2022-08-27T15:27:52.205Z,22.10
2022-08-27T15:30:26.188Z,22.00
2022-08-27T15:32:55.391Z,21.90
2022-08-27T15:35:27.815Z,21.90
2022-08-27T15:37:59.913Z,21.90
2022-08-27T15:40:32.193Z,21.80
2022-08-27T15:43:04.361Z,21.80
2022-08-27T15:45:33.582Z,21.80
2022-08-27T15:48:02.767Z,21.80
2022-08-27T15:50:34.651Z,21.70
2022-08-27T15:53:05.644Z,21.60
2022-08-27T15:55:37.373Z,21.50
2022-08-27T15:58:06.327Z,21.40
2022-08-27T16:00:36.317Z,21.40
2022-08-27T16:03:08.422Z,21.50
2022-08-27T16:05:40.453Z,21.60
2022-08-27T16:08:12.469Z,21.80
2022-08-27T16:10:41.210Z,22.00
2022-08-27T16:13:09.629Z,22.10
2022-08-27T16:15:40.870Z,22.10
2022-08-27T16:18:09.818Z,22.20
2022-08-27T16:20:39.955Z,22.20
2022-08-27T16:23:08.799Z,22.20
2022-08-27T16:25:37.368Z,22.20
2022-08-27T16:28:05.951Z,22.20
2022-08-27T16:30:34.548Z,22.10
2022-08-27T16:33:03.138Z,22.10
2022-08-27T16:35:31.936Z,22.10
2022-08-27T16:38:01.852Z,21.90
2022-08-27T16:40:30.402Z,21.90
2022-08-27T16:43:01.720Z,21.80
2022-08-27T16:45:30.149Z,21.80
2022-08-27T16:48:16.187Z,21.70
2022-08-27T16:50:44.631Z,21.60
2022-08-27T16:53:16.311Z,21.60
2022-08-27T16:55:47.587Z,21.50
2022-08-27T16:58:20.062Z,21.40
2022-08-27T17:00:51.530Z,21.40
2022-08-27T17:05:34.210Z,21.30
2022-08-27T17:08:04.413Z,21.30
2022-08-27T17:10:39.267Z,21.20
2022-08-27T17:13:09.583Z,21.20
2022-08-27T17:15:38.177Z,21.10
2022-08-27T17:18:06.976Z,21.10
2022-08-27T17:20:37.566Z,21.30
2022-08-27T17:23:09.317Z,21.60
2022-08-27T17:25:37.751Z,21.90
2022-08-27T17:30:37.952Z,22.40
2022-08-27T17:33:06.513Z,22.60
2022-08-27T17:35:35.211Z,22.60
2022-08-27T17:38:06.664Z,22.60
2022-08-27T17:40:35.061Z,22.60
2022-08-27T17:43:03.393Z,22.70
2022-08-27T17:45:31.794Z,22.70
2022-08-27T17:48:06.126Z,22.60
2022-08-27T17:50:43.278Z,22.40
2022-08-27T17:53:11.774Z,22.10
2022-08-27T17:55:40.287Z,21.70
2022-08-27T17:58:08.738Z,21.40
2022-08-27T18:00:40.261Z,21.10
2022-08-27T18:03:17.731Z,20.80
2022-08-27T18:05:47.764Z,20.50
2022-08-27T18:08:16.527Z,20.30
2022-08-27T18:10:46.265Z,20.20
2022-08-27T18:13:15.707Z,20.00
2022-08-27T18:15:44.763Z,19.90
2022-08-27T18:18:15.682Z,19.70
2022-08-27T18:20:44.224Z,19.60
2022-08-27T18:23:13.466Z,19.40
2022-08-27T18:25:48.187Z,19.30
2022-08-27T18:28:19.136Z,19.20
2022-08-27T18:30:48.775Z,19.10
2022-08-27T18:33:18.920Z,19.00
2022-08-27T18:35:47.401Z,18.90
2022-08-27T18:38:17.789Z,18.80
2022-08-27T18:40:48.879Z,18.80
2022-08-27T18:43:19.437Z,18.80
2022-08-27T18:45:47.915Z,18.80
2022-08-27T18:48:21.755Z,18.80
2022-08-27T18:50:54.183Z,18.80
2022-08-27T18:53:23.240Z,18.70
2022-08-27T18:55:56.218Z,18.60
2022-08-27T18:58:25.572Z,18.50
2022-08-27T19:00:58.361Z,18.40
2022-08-27T19:05:26.948Z,18.30
2022-08-27T19:07:56.895Z,18.30
2022-08-27T19:10:27.013Z,18.30
2022-08-27T19:12:56.034Z,18.20
2022-08-27T19:15:26.936Z,18.20
2022-08-27T19:17:58.620Z,18.10
2022-08-27T19:20:29.089Z,18.00
2022-08-27T19:22:57.428Z,17.90
2022-08-27T19:25:25.832Z,17.80
2022-08-27T19:27:55.226Z,17.80
2022-08-27T19:30:23.862Z,17.70
2022-08-27T19:32:54.713Z,17.70
2022-08-27T19:35:23.488Z,17.60
2022-08-27T19:37:53.744Z,17.50
2022-08-27T19:40:23.053Z,17.50
2022-08-27T19:42:52.307Z,17.40
2022-08-27T19:45:25.270Z,17.30
2022-08-27T19:47:54.756Z,17.20
2022-08-27T19:50:24.922Z,17.20
2022-08-27T19:52:54.923Z,17.00
2022-08-27T19:55:23.268Z,17.00
2022-08-27T19:57:52.001Z,17.00
2022-08-27T20:00:22.529Z,16.90
2022-08-27T20:02:51.087Z,16.90
2022-08-27T20:05:20.125Z,16.70
2022-08-27T20:07:49.514Z,16.60
2022-08-27T20:10:21.485Z,16.60
2022-08-27T20:12:50.772Z,16.50
2022-08-27T20:15:21.130Z,16.60
2022-08-27T20:17:54.021Z,16.70
2022-08-27T20:20:24.913Z,16.70
2022-08-27T20:22:55.250Z,16.80
2022-08-27T20:25:25.302Z,16.70
2022-08-27T20:27:54.214Z,16.70
2022-08-27T20:30:24.595Z,16.70
2022-08-27T20:32:53.133Z,16.60
2022-08-27T20:35:23.191Z,16.60
2022-08-27T20:37:51.829Z,16.60
2022-08-27T20:40:23.597Z,16.70
2022-08-27T20:42:58.615Z,16.60
2022-08-27T20:45:30.555Z,16.40
2022-08-27T20:48:00.997Z,16.40
2022-08-27T20:50:32.713Z,16.30
2022-08-27T20:53:01.109Z,16.30
2022-08-27T20:55:29.890Z,16.40
2022-08-27T20:58:17.424Z,16.40
2022-08-27T21:00:46.046Z,16.40
2022-08-27T21:05:24.687Z,16.30
2022-08-27T21:07:53.330Z,16.20
2022-08-27T21:10:22.326Z,16.20
2022-08-27T21:12:50.735Z,16.00
2022-08-27T21:15:19.264Z,15.90
2022-08-27T21:17:47.999Z,15.90
2022-08-27T21:20:17.039Z,15.90
2022-08-27T21:22:46.809Z,15.80
2022-08-27T21:25:15.715Z,15.80
2022-08-27T21:27:44.328Z,15.80
2022-08-27T21:30:13.570Z,15.80
2022-08-27T21:32:42.036Z,15.80
2022-08-27T21:35:11.634Z,16.00
2022-08-27T21:37:42.295Z,16.30
2022-08-27T21:40:12.883Z,16.40
2022-08-27T21:42:41.492Z,16.60
2022-08-27T21:45:10.270Z,16.80
2022-08-27T21:47:39.356Z,16.80
2022-08-27T21:50:09.915Z,16.90
2022-08-27T21:52:38.299Z,17.10
2022-08-27T21:55:08.475Z,17.20
2022-08-27T21:57:44.011Z,17.30
2022-08-27T22:00:38.637Z,17.30
2022-08-27T22:03:10.436Z,17.50
2022-08-27T22:05:41.769Z,17.60
2022-08-27T22:08:11.168Z,17.70
2022-08-27T22:10:40.559Z,17.80
2022-08-27T22:13:10.727Z,17.90
2022-08-27T22:15:39.652Z,18.00
2022-08-27T22:18:08.470Z,18.00
2022-08-27T22:20:36.968Z,18.00
2022-08-27T22:23:09.542Z,18.00
2022-08-27T22:25:38.187Z,18.10
2022-08-27T22:28:07.239Z,18.10
2022-08-27T22:30:37.081Z,18.10
2022-08-27T22:33:06.113Z,18.00
2022-08-27T22:35:34.566Z,18.10
2022-08-27T22:38:03.112Z,18.10
2022-08-27T22:40:33.560Z,18.00
2022-08-27T22:43:02.667Z,18.00
2022-08-27T22:45:31.463Z,18.00
2022-08-27T22:48:01.578Z,18.00
2022-08-27T22:50:29.862Z,17.90
2022-08-27T22:52:58.293Z,18.00
2022-08-27T22:55:26.738Z,18.00
2022-08-27T22:57:56.835Z,18.10
2022-08-27T23:00:28.021Z,18.10
2022-08-27T23:05:25.039Z,18.00
2022-08-27T23:07:55.161Z,18.00
2022-08-27T23:10:25.597Z,18.10
2022-08-27T23:12:54.953Z,18.10
2022-08-27T23:15:26.546Z,18.10
2022-08-27T23:17:55.404Z,18.00
2022-08-27T23:20:27.291Z,18.10
2022-08-27T23:22:56.439Z,18.20
2022-08-27T23:25:44.635Z,18.10
2022-08-27T23:28:15.136Z,18.10
2022-08-27T23:30:44.673Z,18.10
2022-08-27T23:33:14.010Z,18.10
2022-08-27T23:35:48.103Z,18.20
2022-08-27T23:38:17.112Z,18.20
2022-08-27T23:40:46.066Z,18.20
2022-08-27T23:43:15.883Z,18.20
2022-08-27T23:45:44.520Z,18.30
2022-08-27T23:48:13.544Z,18.30
2022-08-27T23:50:46.005Z,18.30
2022-08-27T23:53:14.854Z,18.30
2022-08-27T23:55:43.241Z,18.30
2022-08-27T23:58:12.112Z,18.30
